General Aviation Weather

Text Reports

Enter one or more of the following location identifiers separated by a space:

Zip Code, Four-Character ICAO or Three-Character IATA airport codes.

METAR - Aviation Routine Weather Report
KCXY - Harrisburg, Pennsylvania
Updated at 5:56 AM GMT on July 06, 2015 (1:56 AM EDT):
METAR KCXY 060556Z AUTO 00000KT 6SM HZ BKN047 BKN055 22/19 A3013 RMK AO2 SLP203 T02170189 10250 20217 55001
TAF - Terminal Area Forecast
KCXY - Harrisburg, Pennsylvania
Updated at 5:56 AM GMT on July 06, 2015 (1:56 AM EDT):
No TAF is currently available for this location.
Decoded:
No decoded TAF is available.
PIREP - Pilot Weather Report
KCXY - Harrisburg, Pennsylvania
Updated at 5:56 AM GMT on July 06, 2015 (1:56 AM EDT):
No PIREP is currently available for this location.
AIRMET - Airmens Meteorological Information
KCXY - Harrisburg, Pennsylvania
Updated at 5:56 AM GMT on July 06, 2015 (1:56 AM EDT):
No AIRMET is currently available for this location.
SIGMET - Significant Meteorological Information
KCXY - Harrisburg, Pennsylvania
Updated at 5:56 AM GMT on July 06, 2015 (1:56 AM EDT):
No SIGMET is currently available for this location.
NOTAM - Notice to Airmen
KCXY - Harrisburg, Pennsylvania
Updated at 5:56 AM GMT on July 06, 2015 (1:56 AM EDT):
No NOTAM is currently available for this location.
Forecast Area
KCXY - Harrisburg, Pennsylvania
Updated at 5:56 AM GMT on July 06, 2015 (1:56 AM EDT):
No NOTAM is currently available for this location.
Aviation Weather Maps